createdAt,value
2022-09-09T00:00:18.183Z,1.58
2022-09-09T00:00:55.184Z,1.25
2022-09-09T00:01:31.864Z,1.67
2022-09-09T00:02:16.912Z,1.10
2022-09-09T00:03:09.532Z,1.40
2022-09-09T00:03:46.557Z,1.45
2022-09-09T00:04:29.290Z,1.25
2022-09-09T00:05:20.101Z,1.70
2022-09-09T00:06:31.309Z,1.20
2022-09-09T00:07:18.856Z,1.27
2022-09-09T00:07:53.401Z,1.30
2022-09-09T00:08:48.824Z,1.30
2022-09-09T00:09:22.738Z,1.20
2022-09-09T00:10:01.904Z,0.95
2022-09-09T00:10:46.529Z,1.50
2022-09-09T00:11:22.095Z,1.60
2022-09-09T00:12:04.633Z,1.15
2022-09-09T00:12:42.797Z,1.33
2022-09-09T00:13:27.014Z,1.15
2022-09-09T00:14:01.571Z,1.17
2022-09-09T00:14:52.253Z,1.60
2022-09-09T00:15:30.409Z,1.50
2022-09-09T00:16:14.047Z,1.45
2022-09-09T00:16:50.640Z,1.35
2022-09-09T00:17:32.392Z,1.40
2022-09-09T00:18:37.095Z,1.20
2022-09-09T00:19:16.745Z,1.40
2022-09-09T00:19:52.516Z,1.25
2022-09-09T00:21:04.224Z,1.20
2022-09-09T00:21:38.034Z,1.40
2022-09-09T00:22:10.258Z,1.67
2022-09-09T00:22:48.244Z,1.40
2022-09-09T00:23:23.353Z,1.90
2022-09-09T00:23:56.000Z,1.30
2022-09-09T00:24:28.267Z,1.45
2022-09-09T00:25:22.639Z,1.48
2022-09-09T00:26:15.459Z,1.30
2022-09-09T00:26:54.489Z,1.52
2022-09-09T00:27:47.148Z,1.23
2022-09-09T00:28:21.119Z,1.20
2022-09-09T00:28:56.170Z,1.60
2022-09-09T00:29:34.308Z,1.30
2022-09-09T00:30:12.206Z,1.65
2022-09-09T00:30:44.859Z,1.58
2022-09-09T00:31:20.165Z,1.23
2022-09-09T00:31:56.953Z,1.50
2022-09-09T00:32:30.747Z,1.40
2022-09-09T00:33:13.982Z,1.60
2022-09-09T00:33:47.406Z,1.45
2022-09-09T00:34:21.740Z,1.48
2022-09-09T00:34:56.461Z,1.60
2022-09-09T00:35:32.374Z,1.50
2022-09-09T00:36:07.207Z,1.30
2022-09-09T00:36:39.515Z,1.65
2022-09-09T00:37:11.947Z,1.90
2022-09-09T00:37:44.978Z,1.52
2022-09-09T00:38:37.692Z,1.30
2022-09-09T00:39:14.507Z,1.70
2022-09-09T00:39:50.693Z,1.73
2022-09-09T00:40:27.504Z,1.73
2022-09-09T00:41:03.942Z,1.75
2022-09-09T00:41:36.362Z,1.55
2022-09-09T00:42:15.244Z,1.50
2022-09-09T00:42:51.280Z,1.35
2022-09-09T00:43:33.514Z,1.75
2022-09-09T00:44:22.157Z,1.50
2022-09-09T00:45:10.594Z,1.42
2022-09-09T00:46:06.534Z,1.90
2022-09-09T00:46:48.731Z,1.60
2022-09-09T00:47:40.153Z,1.63
2022-09-09T00:48:13.192Z,1.85
2022-09-09T00:48:52.446Z,1.20
2022-09-09T00:49:33.759Z,1.48
2022-09-09T00:50:14.892Z,1.42
2022-09-09T00:51:02.014Z,1.80
2022-09-09T00:51:52.930Z,1.60
2022-09-09T00:52:48.606Z,1.60
2022-09-09T00:53:28.711Z,1.80
2022-09-09T00:54:39.067Z,1.40
2022-09-09T00:55:20.138Z,1.67
2022-09-09T00:56:08.211Z,1.30
2022-09-09T00:56:48.340Z,1.13
2022-09-09T00:57:29.420Z,1.60
2022-09-09T00:58:01.728Z,1.70
2022-09-09T00:58:34.367Z,1.45
2022-09-09T00:59:24.511Z,1.42
2022-09-09T01:00:06.741Z,1.83
2022-09-09T01:00:39.083Z,1.52
2022-09-09T01:01:13.198Z,1.60
2022-09-09T01:01:45.703Z,1.58
2022-09-09T01:02:30.342Z,1.60
2022-09-09T01:03:05.715Z,1.83
2022-09-09T01:04:00.693Z,1.77
2022-09-09T01:04:37.386Z,1.73
2022-09-09T01:05:14.872Z,1.80
2022-09-09T01:05:52.080Z,1.80
2022-09-09T01:06:42.146Z,1.83
2022-09-09T01:07:18.697Z,1.55
2022-09-09T01:07:54.041Z,1.77
2022-09-09T01:08:48.270Z,1.50
2022-09-09T01:09:23.713Z,1.90
2022-09-09T01:09:58.084Z,1.23
2022-09-09T01:10:36.416Z,1.90
2022-09-09T01:11:11.822Z,1.75
2022-09-09T01:11:56.781Z,1.92
2022-09-09T01:12:39.806Z,1.90
2022-09-09T01:13:18.166Z,1.83
2022-09-09T01:13:54.757Z,1.60
2022-09-09T01:14:35.785Z,1.85
2022-09-09T01:15:11.332Z,1.60
2022-09-09T01:15:49.577Z,1.58
2022-09-09T01:16:22.121Z,1.60
2022-09-09T01:17:00.950Z,2.28
2022-09-09T01:17:47.797Z,1.45
2022-09-09T01:18:22.279Z,1.95
2022-09-09T01:18:56.036Z,1.40
2022-09-09T01:19:57.890Z,1.52
2022-09-09T01:20:50.932Z,1.80
2022-09-09T01:21:49.464Z,1.48
2022-09-09T01:22:35.772Z,1.83
2022-09-09T01:23:36.235Z,1.50
2022-09-09T01:24:36.780Z,1.90
2022-09-09T01:25:56.905Z,1.40
2022-09-09T01:26:46.356Z,1.92
2022-09-09T01:27:27.635Z,1.75
2022-09-09T01:28:01.944Z,1.77
2022-09-09T01:28:36.780Z,1.35
2022-09-09T01:29:15.215Z,1.90
2022-09-09T01:29:48.231Z,1.50
2022-09-09T01:30:22.262Z,1.85
2022-09-09T01:30:55.387Z,1.40
2022-09-09T01:31:39.606Z,1.73
2022-09-09T01:32:30.800Z,1.55
2022-09-09T01:33:03.826Z,1.60
2022-09-09T01:33:36.087Z,1.80
2022-09-09T01:34:16.088Z,2.08
2022-09-09T01:34:49.778Z,1.70
2022-09-09T01:35:25.476Z,1.70
2022-09-09T01:36:04.120Z,2.00
2022-09-09T01:36:42.053Z,1.83
2022-09-09T01:37:14.617Z,1.85
2022-09-09T01:37:47.117Z,2.20
2022-09-09T01:38:19.576Z,2.20
2022-09-09T01:38:54.161Z,2.22
2022-09-09T01:39:27.598Z,2.10
2022-09-09T01:40:09.389Z,2.42
2022-09-09T01:40:42.787Z,2.33
2022-09-09T01:41:15.069Z,2.00
2022-09-09T01:41:54.434Z,1.90
2022-09-09T01:42:26.962Z,2.10
2022-09-09T01:42:59.399Z,2.25
2022-09-09T01:43:32.186Z,2.10
2022-09-09T01:44:05.124Z,1.95
2022-09-09T01:44:39.612Z,1.90
2022-09-09T01:45:11.910Z,2.15
2022-09-09T01:45:45.482Z,1.90
2022-09-09T01:46:18.646Z,1.73
2022-09-09T01:46:51.261Z,2.10
2022-09-09T01:47:26.546Z,2.50
2022-09-09T01:48:07.884Z,2.08
2022-09-09T01:48:53.880Z,1.95
2022-09-09T01:49:26.431Z,2.00
2022-09-09T01:49:59.776Z,1.70
2022-09-09T01:50:34.234Z,2.20
2022-09-09T01:51:06.642Z,2.15
2022-09-09T01:51:39.436Z,2.08
2022-09-09T01:52:14.492Z,2.17
2022-09-09T01:52:48.485Z,2.13
2022-09-09T01:53:22.987Z,2.00
2022-09-09T01:53:55.396Z,2.15
2022-09-09T01:54:29.220Z,1.98
2022-09-09T01:55:02.706Z,1.83
2022-09-09T01:55:43.059Z,2.00
2022-09-09T01:56:29.416Z,1.70
2022-09-09T01:57:21.244Z,1.80
2022-09-09T01:58:03.284Z,1.88
2022-09-09T01:58:41.949Z,1.83
2022-09-09T01:59:23.022Z,1.95
2022-09-09T02:00:13.270Z,2.05
2022-09-09T02:00:55.774Z,1.88
2022-09-09T02:02:20.092Z,1.73
2022-09-09T02:03:31.860Z,1.50
2022-09-09T02:04:35.457Z,1.92
2022-09-09T02:05:15.663Z,1.73
2022-09-09T02:06:05.096Z,2.10
2022-09-09T02:06:39.934Z,2.03
2022-09-09T02:07:43.034Z,1.77
2022-09-09T02:08:46.711Z,1.52
2022-09-09T02:09:20.399Z,1.85
2022-09-09T02:10:00.002Z,2.08
2022-09-09T02:10:34.574Z,1.80
2022-09-09T02:11:18.570Z,1.85
2022-09-09T02:12:09.270Z,1.90
2022-09-09T02:12:54.326Z,1.80
2022-09-09T02:13:26.623Z,1.98
2022-09-09T02:14:02.926Z,1.92
2022-09-09T02:14:40.370Z,1.98
2022-09-09T02:15:19.283Z,1.80
2022-09-09T02:16:01.291Z,2.10
2022-09-09T02:16:44.943Z,2.10
2022-09-09T02:17:25.050Z,1.90
2022-09-09T02:18:14.781Z,1.70
2022-09-09T02:18:50.000Z,2.20
2022-09-09T02:19:28.975Z,2.00
2022-09-09T02:20:57.656Z,1.67
2022-09-09T02:21:31.611Z,1.80
2022-09-09T02:22:04.706Z,1.80
2022-09-09T02:22:38.500Z,2.40
2022-09-09T02:23:12.422Z,2.00
2022-09-09T02:23:48.044Z,2.15
2022-09-09T02:24:20.688Z,2.20
2022-09-09T02:25:01.479Z,2.17
2022-09-09T02:25:37.029Z,2.38
2022-09-09T02:26:22.797Z,1.77
2022-09-09T02:27:01.833Z,2.15
2022-09-09T02:27:34.938Z,2.10
2022-09-09T02:28:09.127Z,2.10
2022-09-09T02:28:42.089Z,2.22
2022-09-09T02:29:17.089Z,2.40
2022-09-09T02:29:50.676Z,1.88
2022-09-09T02:30:25.997Z,2.17
2022-09-09T02:31:02.346Z,1.98
2022-09-09T02:31:42.684Z,2.60
2022-09-09T02:32:23.229Z,2.50
2022-09-09T02:33:00.189Z,2.17
2022-09-09T02:34:02.691Z,2.20
2022-09-09T02:34:37.690Z,2.17
2022-09-09T02:35:11.967Z,2.22
2022-09-09T02:35:46.228Z,2.33
2022-09-09T02:36:22.805Z,2.20
2022-09-09T02:36:56.338Z,2.22
2022-09-09T02:37:33.290Z,2.17
2022-09-09T02:38:07.963Z,2.28
2022-09-09T02:38:43.985Z,3.13
2022-09-09T02:39:19.424Z,2.35
2022-09-09T02:39:53.278Z,2.80
2022-09-09T02:40:27.622Z,2.47
2022-09-09T02:41:05.813Z,2.40
2022-09-09T02:41:39.994Z,1.88
2022-09-09T02:42:12.451Z,2.72
2022-09-09T02:42:48.216Z,2.90
2022-09-09T02:43:20.867Z,2.45
2022-09-09T02:43:53.206Z,2.85
2022-09-09T02:44:25.934Z,2.40
2022-09-09T02:44:58.407Z,2.22
2022-09-09T02:45:37.131Z,2.10
2022-09-09T02:46:33.715Z,2.92
2022-09-09T02:47:21.020Z,2.63
2022-09-09T02:48:02.192Z,2.40
2022-09-09T02:48:39.479Z,2.50
2022-09-09T02:49:23.419Z,2.97
2022-09-09T02:50:04.584Z,2.67
2022-09-09T02:50:45.009Z,2.70
2022-09-09T02:51:25.323Z,2.20
2022-09-09T02:52:48.445Z,2.50
2022-09-09T02:53:33.119Z,2.60
2022-09-09T02:54:18.043Z,3.10
2022-09-09T02:54:51.368Z,3.00
2022-09-09T02:55:36.184Z,2.92
2022-09-09T02:56:13.089Z,2.78
2022-09-09T02:56:55.352Z,2.75
2022-09-09T02:57:34.096Z,2.80
2022-09-09T02:58:08.371Z,3.13
2022-09-09T02:58:41.726Z,3.47
2022-09-09T02:59:14.029Z,2.90
2022-09-09T02:59:47.862Z,3.50
2022-09-09T03:00:27.941Z,2.95
2022-09-09T03:01:04.141Z,3.60
2022-09-09T03:01:37.215Z,4.30
2022-09-09T03:02:11.447Z,3.72
2022-09-09T03:02:44.572Z,3.60
2022-09-09T03:03:17.767Z,4.07
2022-09-09T03:03:50.276Z,3.80
2022-09-09T03:04:25.513Z,3.58
2022-09-09T03:04:58.259Z,3.83
2022-09-09T03:05:30.576Z,4.53
2022-09-09T03:06:03.471Z,4.13
2022-09-09T03:06:36.918Z,3.67
2022-09-09T03:07:21.862Z,3.72
2022-09-09T03:07:55.600Z,3.20
2022-09-09T03:08:28.808Z,3.78
2022-09-09T03:09:03.971Z,3.90
2022-09-09T03:09:36.262Z,3.53
2022-09-09T03:10:09.349Z,3.50
2022-09-09T03:10:41.932Z,3.53
2022-09-09T03:11:15.408Z,3.50
2022-09-09T03:11:48.615Z,3.10
2022-09-09T03:12:21.980Z,3.05
2022-09-09T03:12:54.646Z,3.53
2022-09-09T03:13:27.080Z,3.30
2022-09-09T03:13:59.337Z,3.40
2022-09-09T03:14:33.145Z,3.47
2022-09-09T03:15:06.948Z,3.15
2022-09-09T03:15:39.236Z,3.60
2022-09-09T03:16:13.601Z,2.95
2022-09-09T03:16:49.941Z,3.03
2022-09-09T03:17:22.541Z,3.40
2022-09-09T03:17:59.250Z,2.65
2022-09-09T03:18:31.995Z,2.88
2022-09-09T03:19:04.557Z,3.00
2022-09-09T03:19:37.376Z,3.17
2022-09-09T03:20:11.875Z,3.25
2022-09-09T03:20:44.709Z,2.92
2022-09-09T03:21:17.006Z,3.38
2022-09-09T03:21:50.577Z,3.03
2022-09-09T03:22:23.766Z,2.65
2022-09-09T03:22:56.924Z,2.75
2022-09-09T03:23:29.491Z,2.50
2022-09-09T03:24:04.435Z,2.72
2022-09-09T03:24:37.123Z,2.90
2022-09-09T03:25:10.491Z,2.70
2022-09-09T03:25:49.672Z,2.65
2022-09-09T03:26:25.631Z,2.70
2022-09-09T03:26:58.610Z,2.53
2022-09-09T03:27:31.328Z,3.28
2022-09-09T03:28:04.095Z,3.13
2022-09-09T03:28:36.789Z,2.75
2022-09-09T03:29:09.252Z,2.30
2022-09-09T03:29:41.583Z,2.53
2022-09-09T03:30:18.349Z,2.67
2022-09-09T03:30:51.065Z,3.30
2022-09-09T03:31:23.771Z,2.92
2022-09-09T03:31:57.347Z,2.95
2022-09-09T03:32:30.087Z,2.97
2022-09-09T03:33:03.398Z,3.22
2022-09-09T03:33:38.884Z,3.25
2022-09-09T03:34:12.462Z,2.92
2022-09-09T03:34:45.094Z,2.63
2022-09-09T03:35:19.584Z,2.92
2022-09-09T03:35:52.385Z,3.00
2022-09-09T03:36:29.406Z,2.30
2022-09-09T03:37:01.749Z,3.15
2022-09-09T03:37:35.102Z,2.80
2022-09-09T03:38:07.422Z,3.22
2022-09-09T03:38:41.286Z,2.92
2022-09-09T03:39:15.504Z,2.90
2022-09-09T03:39:49.263Z,3.20
2022-09-09T03:40:23.072Z,2.97
2022-09-09T03:40:56.648Z,3.10
2022-09-09T03:41:30.448Z,2.95
2022-09-09T03:42:07.060Z,3.28
2022-09-09T03:42:40.928Z,3.25
2022-09-09T03:43:13.567Z,3.40
2022-09-09T03:43:45.954Z,3.05
2022-09-09T03:44:18.195Z,3.00
2022-09-09T03:44:51.567Z,3.55
2022-09-09T03:45:26.705Z,3.40
2022-09-09T03:45:59.187Z,3.58
2022-09-09T03:46:33.220Z,3.35
2022-09-09T03:47:07.451Z,3.55
2022-09-09T03:47:39.817Z,3.10
2022-09-09T03:48:13.673Z,3.67
2022-09-09T03:48:46.601Z,3.42
2022-09-09T03:49:21.048Z,3.70
2022-09-09T03:49:53.682Z,3.70
2022-09-09T03:50:25.997Z,2.90
2022-09-09T03:51:01.908Z,3.10
2022-09-09T03:51:37.378Z,3.00
2022-09-09T03:52:11.620Z,3.30
2022-09-09T03:52:44.000Z,3.10
2022-09-09T03:53:23.369Z,3.90
2022-09-09T03:53:59.240Z,3.38
2022-09-09T03:54:33.557Z,3.60
2022-09-09T03:55:06.809Z,3.33
2022-09-09T03:55:39.162Z,3.60
2022-09-09T03:56:11.633Z,3.53
2022-09-09T03:56:43.993Z,3.40
2022-09-09T03:57:18.770Z,3.42
2022-09-09T03:57:51.038Z,3.42
2022-09-09T03:58:25.322Z,3.33
2022-09-09T03:58:58.858Z,3.50
2022-09-09T03:59:31.540Z,3.45
2022-09-09T04:00:05.072Z,3.47
2022-09-09T04:00:59.288Z,3.10
2022-09-09T04:01:33.071Z,3.42
2022-09-09T04:02:05.662Z,3.67
2022-09-09T04:02:38.021Z,3.75
2022-09-09T04:03:10.888Z,3.28
2022-09-09T04:03:43.556Z,3.92
2022-09-09T04:04:15.879Z,3.20
2022-09-09T04:04:48.251Z,2.80
2022-09-09T04:05:20.908Z,3.22
2022-09-09T04:05:54.463Z,2.90
2022-09-09T04:06:27.211Z,3.25
2022-09-09T04:06:59.751Z,3.50
2022-09-09T04:07:32.331Z,3.75
2022-09-09T04:08:04.643Z,3.95
2022-09-09T04:08:37.490Z,3.30
2022-09-09T04:09:10.288Z,3.53
2022-09-09T04:09:43.190Z,3.50
2022-09-09T04:10:16.941Z,3.70
2022-09-09T04:10:50.786Z,3.63
2022-09-09T04:11:23.913Z,3.20
2022-09-09T04:11:58.727Z,3.75
2022-09-09T04:12:32.073Z,3.58
2022-09-09T04:13:05.438Z,3.60
2022-09-09T04:13:41.399Z,3.45
2022-09-09T04:14:15.826Z,3.85
2022-09-09T04:14:48.312Z,3.60
2022-09-09T04:15:22.389Z,3.80
2022-09-09T04:15:55.601Z,3.35
2022-09-09T04:16:28.455Z,3.90
2022-09-09T04:17:01.403Z,3.28
2022-09-09T04:17:34.162Z,3.47
2022-09-09T04:18:07.440Z,3.75
2022-09-09T04:18:40.127Z,3.15
2022-09-09T04:19:14.600Z,2.95
2022-09-09T04:19:48.614Z,3.20
2022-09-09T04:20:20.973Z,3.10
2022-09-09T04:20:54.286Z,3.47
2022-09-09T04:21:29.221Z,2.90
2022-09-09T04:22:01.534Z,2.50
2022-09-09T04:22:33.860Z,3.05
2022-09-09T04:23:07.037Z,2.80
2022-09-09T04:23:40.030Z,2.90
2022-09-09T04:24:12.369Z,2.80
2022-09-09T04:24:48.627Z,2.97
2022-09-09T04:25:22.941Z,3.30
2022-09-09T04:25:56.448Z,3.17
2022-09-09T04:26:29.085Z,3.03
2022-09-09T04:27:01.536Z,2.92
2022-09-09T04:27:34.239Z,2.65
2022-09-09T04:28:06.837Z,2.72
2022-09-09T04:28:39.420Z,2.63
2022-09-09T04:29:17.804Z,2.80
2022-09-09T04:29:50.561Z,2.05
2022-09-09T04:30:23.512Z,3.20
2022-09-09T04:30:56.625Z,2.95
2022-09-09T04:31:29.077Z,2.70
2022-09-09T04:32:02.828Z,2.65
2022-09-09T04:32:36.744Z,2.67
2022-09-09T04:33:10.733Z,2.80
2022-09-09T04:33:43.282Z,3.10
2022-09-09T04:34:16.384Z,2.50
2022-09-09T04:34:49.470Z,2.88
2022-09-09T04:35:21.839Z,2.53
2022-09-09T04:35:55.728Z,2.60
2022-09-09T04:36:30.180Z,2.75
2022-09-09T04:37:06.236Z,2.67
2022-09-09T04:37:38.658Z,2.70
2022-09-09T04:38:10.931Z,3.10
2022-09-09T04:38:43.386Z,2.58
2022-09-09T04:39:15.771Z,2.80
2022-09-09T04:39:48.094Z,2.47
2022-09-09T04:40:20.478Z,3.20
2022-09-09T04:40:53.499Z,2.65
2022-09-09T04:41:25.790Z,3.22
2022-09-09T04:41:59.513Z,3.10
2022-09-09T04:42:35.732Z,2.60
2022-09-09T04:43:12.597Z,3.05
2022-09-09T04:43:47.158Z,3.00
2022-09-09T04:44:21.537Z,3.03
2022-09-09T04:44:54.127Z,3.10
2022-09-09T04:45:27.409Z,3.00
2022-09-09T04:46:03.384Z,3.25
2022-09-09T04:46:35.799Z,2.88
2022-09-09T04:47:08.157Z,3.00
2022-09-09T04:47:40.564Z,3.03
2022-09-09T04:48:12.962Z,2.90
2022-09-09T04:48:45.498Z,3.17
2022-09-09T04:49:17.916Z,3.10
2022-09-09T04:49:51.061Z,3.15
2022-09-09T04:50:23.457Z,3.35
2022-09-09T04:51:07.770Z,3.47
2022-09-09T04:51:40.563Z,3.75
2022-09-09T04:52:13.567Z,3.88
2022-09-09T04:52:46.083Z,3.75
2022-09-09T04:53:18.831Z,3.67
2022-09-09T04:53:52.195Z,3.00
2022-09-09T04:54:25.553Z,3.15
2022-09-09T04:54:57.908Z,3.63
2022-09-09T04:55:30.376Z,2.97
2022-09-09T04:56:11.261Z,3.30
2022-09-09T04:56:48.046Z,3.90
2022-09-09T04:57:20.484Z,3.55
2022-09-09T04:57:53.998Z,3.47
2022-09-09T04:58:27.693Z,3.53
2022-09-09T04:59:00.707Z,3.10
2022-09-09T04:59:54.603Z,3.60
2022-09-09T05:00:27.209Z,3.63
2022-09-09T05:01:04.775Z,3.22
2022-09-09T05:01:37.489Z,3.85
2022-09-09T05:02:11.460Z,3.10
2022-09-09T05:02:44.221Z,3.53
2022-09-09T05:03:16.575Z,3.42
2022-09-09T05:03:49.018Z,3.67
2022-09-09T05:04:26.684Z,2.85
2022-09-09T05:04:59.304Z,3.33
2022-09-09T05:05:32.351Z,3.20
2022-09-09T05:06:14.921Z,3.42
2022-09-09T05:06:47.297Z,3.30
2022-09-09T05:07:20.272Z,3.47
2022-09-09T05:07:52.612Z,3.30
2022-09-09T05:08:25.278Z,3.15
2022-09-09T05:08:58.507Z,3.58
2022-09-09T05:09:33.854Z,3.50
2022-09-09T05:10:07.683Z,3.22
2022-09-09T05:10:40.227Z,3.47
2022-09-09T05:11:20.244Z,3.17
2022-09-09T05:11:53.102Z,2.67
2022-09-09T05:12:38.087Z,2.75
2022-09-09T05:13:10.686Z,3.08
2022-09-09T05:13:43.132Z,3.67
2022-09-09T05:14:15.901Z,3.38
2022-09-09T05:14:48.241Z,3.42
2022-09-09T05:15:22.380Z,3.70
2022-09-09T05:15:55.559Z,3.90
2022-09-09T05:16:28.579Z,3.42
2022-09-09T05:17:01.586Z,3.47
2022-09-09T05:17:35.044Z,3.60
2022-09-09T05:18:07.612Z,4.20
2022-09-09T05:18:41.001Z,3.83
2022-09-09T05:19:14.123Z,3.83
2022-09-09T05:19:52.676Z,4.22
2022-09-09T05:20:25.514Z,4.38
2022-09-09T05:21:01.652Z,3.78
2022-09-09T05:21:34.512Z,4.32
2022-09-09T05:22:06.939Z,4.28
2022-09-09T05:22:46.731Z,4.40
2022-09-09T05:23:19.077Z,4.22
2022-09-09T05:23:52.616Z,3.70
2022-09-09T05:24:25.762Z,3.92
2022-09-09T05:25:02.319Z,3.58
2022-09-09T05:25:34.656Z,3.95
2022-09-09T05:26:07.457Z,3.70
2022-09-09T05:26:40.483Z,3.78
2022-09-09T05:27:13.537Z,3.63
2022-09-09T05:27:46.784Z,3.67
2022-09-09T05:28:20.463Z,3.70
2022-09-09T05:28:53.251Z,4.18
2022-09-09T05:29:25.677Z,3.70
2022-09-09T05:29:58.826Z,2.97
2022-09-09T05:30:31.488Z,3.75
2022-09-09T05:31:09.228Z,4.13
2022-09-09T05:31:42.653Z,4.28
2022-09-09T05:32:19.463Z,4.30
2022-09-09T05:32:56.885Z,3.25
2022-09-09T05:33:29.315Z,3.60
2022-09-09T05:34:02.202Z,3.50
2022-09-09T05:34:34.648Z,3.60
2022-09-09T05:35:07.213Z,3.20
2022-09-09T05:35:39.565Z,3.15
2022-09-09T05:36:14.477Z,3.60
2022-09-09T05:36:48.340Z,3.60
2022-09-09T05:37:21.504Z,3.50
2022-09-09T05:37:54.737Z,3.90
2022-09-09T05:38:28.838Z,3.60
2022-09-09T05:39:02.490Z,4.40
2022-09-09T05:39:38.182Z,4.68
2022-09-09T05:40:12.258Z,4.20
2022-09-09T05:40:49.294Z,4.40
2022-09-09T05:41:22.107Z,6.72
2022-09-09T05:41:54.711Z,4.38
2022-09-09T05:42:31.796Z,4.20
2022-09-09T05:43:04.606Z,3.65
2022-09-09T05:43:36.985Z,3.30
2022-09-09T05:44:09.351Z,4.47
2022-09-09T05:44:45.824Z,3.83
2022-09-09T05:45:18.325Z,3.60
2022-09-09T05:46:02.264Z,3.83
2022-09-09T05:46:35.648Z,4.18
2022-09-09T05:47:09.370Z,3.22
2022-09-09T05:47:42.039Z,3.67
2022-09-09T05:48:17.262Z,3.53
2022-09-09T05:48:53.315Z,3.78
2022-09-09T05:49:29.347Z,3.45
2022-09-09T05:50:02.040Z,3.35
2022-09-09T05:50:34.478Z,3.80
2022-09-09T05:51:10.400Z,3.90
2022-09-09T05:51:44.002Z,4.15
2022-09-09T05:52:19.182Z,3.33
2022-09-09T05:52:55.435Z,3.20
2022-09-09T05:53:28.083Z,3.63
2022-09-09T05:54:00.785Z,3.53
2022-09-09T05:54:36.690Z,3.65
2022-09-09T05:55:09.089Z,3.72
2022-09-09T05:55:41.693Z,3.90
2022-09-09T05:56:21.273Z,3.60
2022-09-09T05:56:54.802Z,3.20
2022-09-09T05:57:27.341Z,3.08
2022-09-09T05:57:59.835Z,3.40
2022-09-09T05:58:35.517Z,3.83
2022-09-09T05:59:10.458Z,4.05
2022-09-09T05:59:44.046Z,4.05
2022-09-09T06:00:17.526Z,4.50
2022-09-09T06:00:52.153Z,6.25
2022-09-09T06:01:26.143Z,4.50
2022-09-09T06:01:58.673Z,4.95
2022-09-09T06:02:42.730Z,4.90
2022-09-09T06:03:18.328Z,4.97
2022-09-09T06:03:51.389Z,5.50
2022-09-09T06:04:25.442Z,4.90
2022-09-09T06:05:00.629Z,4.40
2022-09-09T06:05:34.908Z,4.85
2022-09-09T06:06:08.365Z,4.72
2022-09-09T06:06:41.070Z,4.60
2022-09-09T06:07:22.665Z,4.43
2022-09-09T06:07:55.178Z,5.03
2022-09-09T06:08:28.205Z,4.68
2022-09-09T06:09:00.565Z,5.13
2022-09-09T06:09:38.964Z,5.07
2022-09-09T06:10:14.776Z,4.75
2022-09-09T06:10:47.487Z,4.90
2022-09-09T06:11:27.648Z,4.90
2022-09-09T06:12:00.030Z,5.32
2022-09-09T06:12:34.383Z,4.85
2022-09-09T06:13:07.736Z,5.15
2022-09-09T06:13:41.199Z,5.53
2022-09-09T06:14:13.673Z,4.90
2022-09-09T06:14:47.432Z,5.13
2022-09-09T06:15:20.698Z,4.50
2022-09-09T06:15:53.327Z,4.72
2022-09-09T06:16:27.628Z,4.60
2022-09-09T06:17:00.009Z,4.72
2022-09-09T06:17:35.529Z,5.72
2022-09-09T06:18:07.851Z,4.70
2022-09-09T06:18:40.778Z,5.18
2022-09-09T06:19:14.017Z,5.00
2022-09-09T06:19:47.588Z,5.38
2022-09-09T06:20:19.957Z,5.10
2022-09-09T06:20:56.043Z,6.10
2022-09-09T06:21:29.348Z,5.93
2022-09-09T06:22:01.745Z,5.00
2022-09-09T06:22:36.471Z,5.13
2022-09-09T06:23:08.741Z,5.20
2022-09-09T06:23:45.620Z,4.60
2022-09-09T06:24:20.542Z,4.60
2022-09-09T06:24:53.840Z,4.45
2022-09-09T06:25:26.326Z,4.97
2022-09-09T06:26:21.854Z,4.20
2022-09-09T06:26:55.449Z,5.00
2022-09-09T06:27:32.502Z,4.43
2022-09-09T06:28:05.697Z,5.60
2022-09-09T06:28:38.275Z,5.78
2022-09-09T06:29:11.031Z,5.35
2022-09-09T06:29:43.265Z,5.70
2022-09-09T06:30:15.728Z,6.43
2022-09-09T06:30:48.362Z,5.28
2022-09-09T06:31:29.698Z,5.50
2022-09-09T06:32:04.726Z,5.60
2022-09-09T06:32:39.012Z,5.03
2022-09-09T06:33:11.668Z,4.70
2022-09-09T06:33:44.503Z,4.68
2022-09-09T06:34:18.269Z,4.90
2022-09-09T06:34:55.456Z,5.22
2022-09-09T06:35:27.940Z,5.05
2022-09-09T06:36:00.353Z,5.78
2022-09-09T06:36:34.504Z,5.28
2022-09-09T06:37:07.783Z,5.03
2022-09-09T06:37:49.969Z,5.80
2022-09-09T06:38:24.426Z,5.03
2022-09-09T06:38:57.026Z,7.30
2022-09-09T06:39:29.852Z,6.32
2022-09-09T06:40:02.314Z,6.20
2022-09-09T06:40:35.457Z,6.30
2022-09-09T06:41:12.814Z,6.18
2022-09-09T06:41:46.036Z,7.32
2022-09-09T06:42:44.526Z,6.70
2022-09-09T06:43:36.634Z,6.78
2022-09-09T06:44:09.031Z,11.60
2022-09-09T06:44:46.613Z,10.68
2022-09-09T06:46:10.642Z,7.95
2022-09-09T06:46:43.168Z,8.82
2022-09-09T06:47:16.583Z,9.07
2022-09-09T06:47:49.345Z,9.93
2022-09-09T06:48:21.785Z,10.27
2022-09-09T06:48:56.438Z,9.15
2022-09-09T06:49:28.819Z,10.55
2022-09-09T06:50:01.308Z,11.48
2022-09-09T06:50:36.765Z,12.30
2022-09-09T06:51:09.963Z,11.00
2022-09-09T06:51:45.335Z,9.45
2022-09-09T06:52:19.410Z,10.27
2022-09-09T06:52:52.877Z,9.88
2022-09-09T06:53:25.693Z,11.18
2022-09-09T06:53:59.637Z,10.68
2022-09-09T06:54:32.647Z,9.07
2022-09-09T06:55:05.145Z,9.98
2022-09-09T06:55:38.700Z,9.25
2022-09-09T06:56:14.801Z,9.52
2022-09-09T06:56:51.190Z,9.18
2022-09-09T06:57:43.895Z,7.95
2022-09-09T06:58:23.199Z,7.75
2022-09-09T06:58:57.315Z,6.60
2022-09-09T06:59:32.661Z,6.95
2022-09-09T07:00:06.003Z,6.82
2022-09-09T07:00:40.967Z,7.43
2022-09-09T07:01:20.859Z,7.10
2022-09-09T07:01:56.046Z,6.63
2022-09-09T07:02:29.510Z,6.22
2022-09-09T07:03:01.840Z,6.93
2022-09-09T07:03:35.051Z,6.05
2022-09-09T07:04:09.210Z,6.53
2022-09-09T07:04:42.775Z,6.57
2022-09-09T07:05:16.582Z,6.05
2022-09-09T07:06:00.372Z,5.97
2022-09-09T07:06:35.586Z,5.70
2022-09-09T07:07:10.981Z,6.55
2022-09-09T07:07:44.156Z,6.78
2022-09-09T07:08:18.638Z,6.45
2022-09-09T07:09:01.825Z,5.88
2022-09-09T07:09:34.958Z,5.75
2022-09-09T07:10:08.809Z,5.68
2022-09-09T07:10:42.865Z,6.70
2022-09-09T07:11:15.229Z,5.97
2022-09-09T07:11:49.218Z,6.05
2022-09-09T07:12:23.380Z,6.03
2022-09-09T07:13:02.768Z,5.68
2022-09-09T07:13:35.732Z,5.80
2022-09-09T07:14:08.807Z,5.80
2022-09-09T07:14:41.118Z,6.13
2022-09-09T07:15:15.677Z,6.75
2022-09-09T07:15:50.632Z,6.70
2022-09-09T07:16:26.428Z,6.28
2022-09-09T07:16:59.765Z,6.60
2022-09-09T07:17:35.991Z,6.55
2022-09-09T07:18:08.535Z,7.20
2022-09-09T07:18:41.016Z,7.00
2022-09-09T07:19:13.973Z,7.07
2022-09-09T07:19:46.864Z,6.82
2022-09-09T07:20:21.354Z,6.80
2022-09-09T07:20:54.351Z,7.10
2022-09-09T07:21:27.683Z,6.50
2022-09-09T07:21:59.960Z,6.65
2022-09-09T07:22:33.286Z,6.00
2022-09-09T07:23:05.747Z,7.25
2022-09-09T07:23:38.141Z,7.07
2022-09-09T07:24:13.633Z,7.65
2022-09-09T07:24:48.125Z,7.38
2022-09-09T07:25:22.272Z,7.18
2022-09-09T07:25:54.776Z,5.72
2022-09-09T07:26:28.926Z,6.85
2022-09-09T07:27:02.202Z,6.97
2022-09-09T07:27:34.952Z,6.72
2022-09-09T07:28:08.704Z,7.22
2022-09-09T07:28:42.488Z,7.07
2022-09-09T07:29:20.453Z,7.60
2022-09-09T07:29:55.462Z,7.05
2022-09-09T07:30:28.233Z,6.65
2022-09-09T07:31:03.708Z,7.38
2022-09-09T07:31:37.766Z,6.85
2022-09-09T07:32:13.801Z,7.43
2022-09-09T07:32:46.304Z,7.07
2022-09-09T07:33:21.294Z,6.95
2022-09-09T07:33:53.724Z,7.72
2022-09-09T07:34:26.164Z,6.88
2022-09-09T07:34:59.727Z,6.80
2022-09-09T07:35:33.096Z,7.53
2022-09-09T07:36:09.671Z,8.40
2022-09-09T07:36:43.659Z,7.75
2022-09-09T07:37:19.057Z,7.45
2022-09-09T07:37:51.805Z,7.20
2022-09-09T07:38:26.032Z,7.60
2022-09-09T07:39:00.459Z,6.60
2022-09-09T07:39:34.067Z,7.30
2022-09-09T07:40:07.690Z,6.78
2022-09-09T07:40:40.770Z,8.32
2022-09-09T07:41:16.019Z,7.28
2022-09-09T07:41:49.501Z,6.97
2022-09-09T07:42:25.019Z,7.90
2022-09-09T07:42:57.626Z,7.78
2022-09-09T07:43:30.333Z,7.30
2022-09-09T07:44:06.350Z,7.38
2022-09-09T07:44:40.679Z,7.20
2022-09-09T07:45:17.054Z,6.25
2022-09-09T07:45:58.125Z,6.63
2022-09-09T07:46:30.578Z,5.50
2022-09-09T07:47:03.945Z,6.20
2022-09-09T07:47:43.781Z,5.78
2022-09-09T07:48:16.088Z,5.65
2022-09-09T07:48:53.273Z,5.97
2022-09-09T07:49:32.609Z,5.43
2022-09-09T07:50:06.883Z,6.10
2022-09-09T07:50:39.914Z,5.65
2022-09-09T07:51:20.812Z,5.30
2022-09-09T07:51:55.018Z,5.45
2022-09-09T07:52:28.806Z,5.63
2022-09-09T07:53:07.375Z,4.80
2022-09-09T07:53:41.151Z,5.70
2022-09-09T07:54:14.713Z,5.55
2022-09-09T07:54:49.534Z,6.45
2022-09-09T07:55:25.147Z,5.97
2022-09-09T07:56:04.059Z,6.15
2022-09-09T07:56:40.272Z,5.95
2022-09-09T07:57:14.060Z,6.40
2022-09-09T07:57:47.442Z,6.22
2022-09-09T07:58:20.962Z,5.82
2022-09-09T07:58:54.391Z,5.85
2022-09-09T07:59:26.788Z,6.35
2022-09-09T08:00:00.396Z,6.20
2022-09-09T08:00:34.593Z,5.65
2022-09-09T08:01:08.142Z,5.70
2022-09-09T08:01:42.953Z,5.72
2022-09-09T08:02:17.424Z,5.80
2022-09-09T08:02:50.686Z,5.00
2022-09-09T08:03:23.849Z,5.68
2022-09-09T08:04:00.390Z,6.07
2022-09-09T08:04:32.772Z,4.63
2022-09-09T08:05:06.492Z,5.32